Vindeby, Denmark
Current Conditions -  °F | °C
As of 4:50 PM on Thursday 27 Nov 2014 (Local Time) from EKSB Reporting Station
Broken Clouds Broken Clouds  
Wind Chill: 34°   Ceiling: 2500
Heat Index: 43°   Visibility: 6mi
Dew Point: 34°   Wind: 23mph
Humidity: 70%   Direction: 110°ESE
Pressure: 29.97"   Gusts: NA
Location:  55.04°N, 10.61°E
Report Text: EKSB 271550Z 11020KT 9999 BKN025 06/01 Q1015
Loading
Personal Weather Stations






























Interactive Weather Map New forecast layout! Learn more

10-Day Weather Forecast

Advertisements
Track Severe Weather on mobile